• Join FlightAware (Why Join?)
  • Login
  • US Flag GB Flag 
11:14 EDT


 

Airport Tracker/Info


-or-


 

Live Flight TrackerFlight Track Log ✈ SWA407 ✈ 18-Apr-2013 ✈ KMCO - KATL

Flight Track Log - Related Links

Times and Time Zones

All times are in EDT time to prevent confusion due to time zone crossing. See the SWA407 flight status page for this flight to view local times or setup timezone preferences in your user account.

Time Position Orientation Groundspeed Altitude Reporting Facility
EDT Latitude Longitude Course Direction KTS MPH feet Rate Location/Type
15:26 28.4167 -81.3000 180° South 152 175 600  Level Orlando TRACON
15:27 28.3667 -81.3000 180° South 230 265 3,100 2,940 Climbing Orlando TRACON
15:28 28.3500 -81.3833 257° West 272 313 6,800 3,540 Climbing Orlando TRACON
15:29 28.4000 -81.4333 319° Northwest 307 353 10,600 3,300 Climbing Orlando TRACON
15:31 28.6328 -81.5019 345° North 372 428 18,200 3,240 Climbing Jacksonville Center
15:32 28.7394 -81.5264 349° North 372 428 21,800 2,400 Climbing Jacksonville Center
15:33 28.8483 -81.5556 347° North 383 441 23,000 2,040 Climbing Jacksonville Center
15:34 28.9572 -81.5828 348° North 393 452 25,900 2,820 Climbing Jacksonville Center
15:35 29.0681 -81.6097 348° North 393 452 28,700 3,120 Climbing Jacksonville Center
15:36 29.1811 -81.6344 349° North 393 452 32,200 3,120 Climbing Jacksonville Center
15:37 29.2814 -81.6642 346° North 385 443 35,000 1,380 Climbing Jacksonville Center
15:38 29.3881 -81.6889 349° North 380 437 35,000  Level Jacksonville Center
15:39 29.4969 -81.7164 348° North 385 443 35,000  Level Jacksonville Center
15:40 29.6036 -81.7411 349° North 390 449 35,000  Level Jacksonville Center
15:41 29.7106 -81.7711 346° North 390 449 35,000  Level Jacksonville Center
15:42 29.8192 -81.7939 350° North 390 449 35,000  Level Jacksonville Center
15:43 29.9258 -81.8214 347° North 390 449 35,000  Level Jacksonville Center
15:44 30.0325 -81.8442 350° North 390 449 35,000  Level Jacksonville Center
15:45 30.1392 -81.8694 348° North 390 449 35,000  Level Jacksonville Center
15:46 30.2500 -81.8825 354° North 390 449 35,000  Level Jacksonville Center
15:48 30.4772 -81.8489 North 401 461 35,000  Level Jacksonville Center
15:49 30.5919 -81.8381 North 411 473 35,000  Level Jacksonville Center
15:50 30.7025 -81.8222 North 406 467 35,000  Level Jacksonville Center
15:51 30.8172 -81.8089 North 406 467 35,000  Level Jacksonville Center
15:52 30.9200 -81.8464 343° North 394 453 35,000  Level Jacksonville Center
15:53 31.0100 -81.9011 332° Northwest 402 463 35,000  Level Jacksonville Center
15:54 31.1108 -81.9608 333° Northwest 402 463 35,000  Level Jacksonville Center
15:55 31.2136 -82.0206 334° Northwest 402 463 35,000  Level Jacksonville Center
15:56 31.3119 -82.0803 333° Northwest 402 463 35,000  Level Jacksonville Center
15:57 31.4106 -82.1428 332° Northwest 402 463 35,000  Level Jacksonville Center
15:58 31.5111 -82.2028 333° Northwest 402 463 35,000  Level Jacksonville Center
15:59 31.6075 -82.2558 335° Northwest 395 455 35,000  Level Jacksonville Center
16:01 31.8064 -82.3722 334° Northwest 372 428 35,000  Level Atlanta Center
16:02 31.9031 -82.4317 332° Northwest 382 440 35,000  Level Atlanta Center
16:03 31.9997 -82.4911 332° Northwest 382 440 35,000  Level Atlanta Center
16:04 32.0967 -82.5483 333° Northwest 387 445 35,000 -60 Level Atlanta Center
16:05 32.1933 -82.6081 332° Northwest 392 451 34,900 -600 Descending Atlanta Center
16:06 32.2919 -82.6653 334° Northwest 392 451 33,900 -960 Descending Atlanta Center
16:07 32.3928 -82.7278 332° Northwest 393 452 33,000 -960 Descending Atlanta Center
16:08 32.4936 -82.7903 332° Northwest 393 452 32,000 -780 Descending Atlanta Center
16:09 32.5736 -82.8508 327° Northwest 393 452 31,500 -900 Descending Atlanta Center
16:10 32.6542 -82.9656 310° West 398 458 30,200 -1,200 Descending Atlanta Center
16:11 32.7239 -83.0686 309° West 403 464 29,200 -900 Descending Atlanta Center
16:12 32.7786 -83.1519 308° West 403 464 28,400 -1,080 Descending Atlanta Center
16:13 32.8608 -83.2772 308° West 398 458 27,100 -1,740 Descending Atlanta Center
16:14 32.9283 -83.3731 310° West 398 458 25,000 -1,980 Descending Atlanta Center
16:15 32.9956 -83.4792 307° West 393 452 23,200 -2,460 Descending Atlanta Center
16:17 33.1236 -83.6742 308° West 388 447 17,700 -2,820 Descending Atlanta Center
16:18 33.1908 -83.7683 310° West 382 440 14,900 -1,860 Descending Atlanta Center
16:19 33.2597 -83.8747 308° West 382 440 14,000 -660 Descending Atlanta Center
16:20 33.3142 -83.9592 308° West 352 405 13,600 -840 Descending Atlanta Center
16:21 33.3683 -84.0389 309° West 317 365 12,400 -840 Descending Atlanta Center
16:22 33.4186 -84.1158 308° West 303 349 12,000 -240 Descending Atlanta Center
16:23 33.4622 -84.1833 308° West 274 315 12,000  Level Atlanta Center
16:24 33.5061 -84.2506 308° West 262 302 12,000 -360 Level Atlanta Center
16:25 33.5414 -84.3231 300° West 256 295 11,300 -960 Descending Atlanta Center
16:26 33.5433 -84.4028 272° West 241 277 10,100 -1,200 Descending Atlanta Center
16:27 33.5431 -84.4700 270° West 236 272 8,900 -1,740 Descending Atlanta Center
16:28 33.5500 -84.5667 275° West 233 268 6,400 -1,920 Descending Atlanta TRACON
16:29 33.5667 -84.6333 287° West 247 284 4,900 -1,440 Descending Atlanta TRACON
16:30 33.6167 -84.6000 29° Northeast 204 235 3,600 -1,200 Descending Atlanta TRACON
16:31 33.6167 -84.5333 90° East 181 208 2,500 -960 Descending Atlanta TRACON
16:32 33.6167 -84.4833 90° East 137 158 1,700 -840 Descending Atlanta TRACON
16:34 33.6367 -84.4279 64° Northeast  Level Estimated
16:41 33.6367 -84.4279 64° Northeast  Level Estimated
16:42 33.6367 -84.4279 64° Northeast  Level Estimated